createdAt,value
2022-10-25T00:01:58.278Z,93.33
2022-10-25T00:04:27.309Z,93.76
2022-10-25T00:06:56.793Z,93.18
2022-10-25T00:09:24.951Z,93.45
2022-10-25T00:11:53.030Z,93.65
2022-10-25T00:14:21.185Z,93.73
2022-10-25T00:16:49.298Z,93.80
2022-10-25T00:19:17.342Z,93.67
2022-10-25T00:21:45.433Z,93.62
2022-10-25T00:24:15.542Z,94.23
2022-10-25T00:26:43.829Z,93.62
2022-10-25T00:29:13.382Z,93.77
2022-10-25T00:31:41.537Z,94.24
2022-10-25T00:34:09.681Z,93.90
2022-10-25T00:36:37.886Z,94.35
2022-10-25T00:39:06.119Z,94.05
2022-10-25T00:41:36.142Z,94.62
2022-10-25T00:44:52.658Z,94.17
2022-10-25T00:47:46.141Z,93.92
2022-10-25T00:50:23.307Z,94.11
2022-10-25T00:52:55.158Z,94.29
2022-10-25T00:55:25.385Z,94.13
2022-10-25T00:58:00.842Z,94.54
2022-10-25T01:00:29.022Z,94.59
2022-10-25T01:02:57.271Z,94.49
2022-10-25T01:05:25.430Z,94.83
2022-10-25T01:07:53.676Z,95.24
2022-10-25T01:10:21.884Z,94.90
2022-10-25T01:12:52.059Z,95.22
2022-10-25T01:15:26.441Z,94.90
2022-10-25T01:18:04.850Z,93.88
2022-10-25T01:21:29.733Z,94.32
2022-10-25T01:24:37.601Z,94.08
2022-10-25T01:30:53.281Z,94.14
2022-10-25T01:33:27.445Z,94.11
2022-10-25T01:36:06.301Z,94.60
2022-10-25T01:38:44.078Z,94.31
2022-10-25T01:41:23.349Z,93.97
2022-10-25T01:44:06.734Z,93.95
2022-10-25T01:46:46.206Z,93.73
2022-10-25T01:49:21.090Z,94.30
2022-10-25T01:51:49.168Z,93.81
2022-10-25T01:54:25.047Z,94.13
2022-10-25T01:57:09.424Z,93.44
2022-10-25T02:00:11.260Z,93.92
2022-10-25T02:02:58.442Z,93.29
2022-10-25T02:05:36.451Z,93.76
2022-10-25T02:08:11.314Z,93.48
2022-10-25T02:10:43.439Z,93.25
2022-10-25T02:13:21.558Z,94.25
2022-10-25T02:15:58.327Z,94.33
2022-10-25T02:21:07.070Z,94.47
2022-10-25T02:23:36.891Z,94.61
2022-10-25T02:26:08.933Z,94.42
2022-10-25T02:28:41.355Z,94.90
2022-10-25T02:31:14.462Z,94.17
2022-10-25T02:33:45.694Z,94.84
2022-10-25T02:36:17.421Z,94.62
2022-10-25T02:38:46.271Z,95.12
2022-10-25T02:41:14.540Z,94.54
2022-10-25T02:43:43.053Z,95.06
2022-10-25T02:46:15.606Z,95.07
2022-10-25T02:48:46.139Z,94.74
2022-10-25T02:51:14.891Z,94.65
2022-10-25T02:53:43.531Z,95.36
2022-10-25T02:56:15.883Z,95.12
2022-10-25T02:58:45.437Z,95.31
2022-10-25T03:01:14.418Z,95.27
2022-10-25T03:03:45.155Z,95.14
2022-10-25T03:06:16.263Z,95.42
2022-10-25T03:08:46.203Z,95.47
2022-10-25T03:11:16.758Z,95.54
2022-10-25T03:13:44.928Z,95.13
2022-10-25T03:16:13.294Z,95.53
2022-10-25T03:18:41.477Z,95.30
2022-10-25T03:21:11.018Z,95.76
2022-10-25T03:23:39.336Z,95.68
2022-10-25T03:26:07.492Z,95.70
2022-10-25T03:28:35.548Z,96.00
2022-10-25T03:31:03.734Z,95.48
2022-10-25T03:33:31.901Z,95.83
2022-10-25T03:35:59.987Z,95.60
2022-10-25T03:38:29.413Z,95.76
2022-10-25T03:40:57.514Z,96.15
2022-10-25T03:43:25.893Z,96.00
2022-10-25T03:45:54.307Z,95.89
2022-10-25T03:48:22.446Z,96.29
2022-10-25T03:50:50.545Z,95.70
2022-10-25T03:53:18.594Z,96.41
2022-10-25T03:55:48.202Z,96.47
2022-10-25T03:58:16.381Z,96.33
2022-10-25T04:00:44.574Z,96.05
2022-10-25T04:03:12.859Z,96.71
2022-10-25T04:05:40.954Z,96.63
2022-10-25T04:08:09.146Z,96.29
2022-10-25T04:10:37.250Z,96.74
2022-10-25T04:13:06.820Z,96.28
2022-10-25T04:15:34.911Z,96.57
2022-10-25T04:18:03.067Z,97.04
2022-10-25T04:20:31.143Z,96.54
2022-10-25T04:22:59.679Z,96.35
2022-10-25T04:25:29.686Z,96.73
2022-10-25T04:28:00.180Z,97.02
2022-10-25T04:30:31.955Z,97.22
2022-10-25T04:33:01.834Z,96.60
2022-10-25T04:35:29.929Z,96.82
2022-10-25T04:37:58.869Z,96.65
2022-10-25T04:40:27.184Z,96.71
2022-10-25T04:42:55.275Z,96.98
2022-10-25T04:45:23.398Z,96.67
2022-10-25T04:47:52.897Z,97.43
2022-10-25T04:50:21.207Z,97.43
2022-10-25T04:52:49.497Z,97.67
2022-10-25T04:55:17.998Z,97.03
2022-10-25T04:57:46.126Z,97.31
2022-10-25T05:00:15.476Z,97.49
2022-10-25T05:02:43.739Z,97.83
2022-10-25T05:05:13.253Z,97.29
2022-10-25T05:07:41.390Z,97.47
2022-10-25T05:10:10.427Z,97.55
2022-10-25T05:12:39.307Z,97.46
2022-10-25T05:15:09.306Z,97.75
2022-10-25T05:17:38.020Z,97.63
2022-10-25T05:20:07.836Z,97.34
2022-10-25T05:22:37.363Z,97.79
2022-10-25T05:25:06.591Z,97.60
2022-10-25T05:27:39.299Z,98.33
2022-10-25T05:30:09.126Z,98.38
2022-10-25T05:32:37.481Z,97.86
2022-10-25T05:35:06.644Z,97.92
2022-10-25T05:37:36.132Z,97.57
2022-10-25T05:40:04.737Z,97.78
2022-10-25T05:42:32.817Z,97.58
2022-10-25T05:45:00.931Z,98.06
2022-10-25T05:47:29.022Z,97.44
2022-10-25T05:49:57.446Z,98.01
2022-10-25T05:52:25.625Z,98.31
2022-10-25T05:54:55.127Z,98.65
2022-10-25T05:57:23.255Z,98.41
2022-10-25T05:59:51.395Z,97.81
2022-10-25T06:02:21.208Z,97.90
2022-10-25T06:04:52.320Z,98.41
2022-10-25T06:07:20.916Z,98.27
2022-10-25T06:09:49.506Z,97.82
2022-10-25T06:12:19.030Z,97.98
2022-10-25T06:14:47.069Z,98.77
2022-10-25T06:17:16.584Z,98.17
2022-10-25T06:19:44.741Z,98.44
2022-10-25T06:22:13.080Z,98.21
2022-10-25T06:24:41.169Z,98.45
2022-10-25T06:27:09.288Z,98.59
2022-10-25T06:29:38.796Z,98.64
2022-10-25T06:32:07.063Z,98.68
2022-10-25T06:34:35.150Z,98.54
2022-10-25T06:37:03.325Z,98.17
2022-10-25T06:39:31.401Z,98.17
2022-10-25T06:41:59.442Z,98.41
2022-10-25T06:44:27.593Z,98.30
2022-10-25T06:47:16.302Z,98.08
2022-10-25T06:49:44.889Z,98.08
2022-10-25T06:52:13.019Z,98.31
2022-10-25T06:54:41.093Z,98.11
2022-10-25T06:57:09.257Z,97.99
2022-10-25T06:59:37.345Z,98.40
2022-10-25T07:02:07.064Z,99.02
2022-10-25T07:04:35.247Z,98.41
2022-10-25T07:07:03.480Z,98.86
2022-10-25T07:09:31.716Z,98.50
2022-10-25T07:11:59.772Z,98.61
2022-10-25T07:14:27.927Z,98.91
2022-10-25T07:16:56.030Z,98.79
2022-10-25T07:19:25.704Z,98.44
2022-10-25T07:21:53.895Z,98.74
2022-10-25T07:24:22.306Z,98.45
2022-10-25T07:26:50.566Z,98.98
2022-10-25T07:29:18.691Z,98.77
2022-10-25T07:31:46.803Z,98.44
2022-10-25T07:34:16.543Z,98.91
2022-10-25T07:36:45.980Z,98.82
2022-10-25T07:39:15.378Z,98.88
2022-10-25T07:41:43.444Z,98.85
2022-10-25T07:44:16.088Z,98.54
2022-10-25T07:46:45.014Z,98.43
2022-10-25T07:49:13.148Z,98.75
2022-10-25T07:51:41.223Z,98.51
2022-10-25T07:54:11.473Z,99.28
2022-10-25T07:56:39.559Z,98.66
2022-10-25T07:59:07.717Z,98.87
2022-10-25T08:01:37.499Z,98.99
2022-10-25T08:04:06.250Z,98.76
2022-10-25T08:06:36.066Z,98.33
2022-10-25T08:09:14.374Z,98.32
2022-10-25T08:11:49.853Z,98.62
2022-10-25T08:14:18.021Z,98.41
2022-10-25T08:16:46.164Z,99.11
2022-10-25T08:19:14.263Z,98.46
2022-10-25T08:21:42.396Z,98.72
2022-10-25T08:24:11.002Z,98.43
2022-10-25T08:26:39.382Z,98.42
2022-10-25T08:29:08.896Z,98.22
2022-10-25T08:31:37.210Z,98.14
2022-10-25T08:34:05.637Z,98.10
2022-10-25T08:36:33.781Z,98.26
2022-10-25T08:39:02.423Z,97.77
2022-10-25T08:41:44.271Z,97.92
2022-10-25T08:44:34.134Z,98.34
2022-10-25T08:47:08.795Z,98.19
2022-10-25T08:49:46.929Z,98.05
2022-10-25T08:52:22.491Z,97.85
2022-10-25T08:54:51.248Z,97.02
2022-10-25T08:57:24.991Z,96.75
2022-10-25T08:59:57.508Z,96.14
2022-10-25T09:02:37.491Z,95.44
2022-10-25T09:05:14.065Z,95.01
2022-10-25T09:08:24.429Z,95.08
2022-10-25T09:10:59.839Z,94.27
2022-10-25T09:13:42.142Z,93.97
2022-10-25T09:16:17.677Z,93.68
2022-10-25T09:18:50.879Z,93.71
2022-10-25T09:21:24.235Z,93.43
2022-10-25T09:24:00.962Z,92.79
2022-10-25T09:26:42.606Z,92.27
2022-10-25T09:29:24.535Z,92.26
2022-10-25T09:31:59.343Z,91.44
2022-10-25T09:34:32.980Z,91.03
2022-10-25T09:37:10.698Z,90.44
2022-10-25T09:39:43.714Z,90.30
2022-10-25T09:42:24.675Z,90.06
2022-10-25T09:44:55.996Z,90.03
2022-10-25T09:47:38.848Z,89.19
2022-10-25T09:50:13.633Z,88.64
2022-10-25T09:52:50.347Z,88.24
2022-10-25T09:55:33.588Z,87.83
2022-10-25T09:58:04.142Z,87.45
2022-10-25T10:00:41.399Z,87.31
2022-10-25T10:03:13.345Z,87.26
2022-10-25T10:05:45.560Z,87.07
2022-10-25T10:08:13.760Z,86.81
2022-10-25T10:10:43.176Z,86.23
2022-10-25T10:13:19.495Z,85.73
2022-10-25T10:15:54.796Z,85.63
2022-10-25T10:18:30.649Z,85.15
2022-10-25T10:21:07.029Z,84.31
2022-10-25T10:23:45.450Z,83.90
2022-10-25T10:26:22.539Z,83.63
2022-10-25T10:28:53.523Z,83.32
2022-10-25T10:31:21.805Z,83.15
2022-10-25T10:33:52.741Z,82.65
2022-10-25T10:36:27.619Z,82.05
2022-10-25T10:39:20.230Z,82.14
2022-10-25T10:42:03.396Z,82.31
2022-10-25T10:44:34.776Z,82.20
2022-10-25T10:47:11.685Z,82.18
2022-10-25T10:49:43.362Z,81.97
2022-10-25T10:52:30.105Z,82.11
2022-10-25T10:54:59.589Z,81.82
2022-10-25T10:57:33.656Z,81.62
2022-10-25T11:00:02.859Z,81.41
2022-10-25T11:02:40.692Z,81.20
2022-10-25T11:05:24.662Z,80.89
2022-10-25T11:07:58.532Z,80.54
2022-10-25T11:10:35.017Z,79.90
2022-10-25T11:13:16.249Z,79.41
2022-10-25T11:16:33.918Z,79.29
2022-10-25T11:19:23.327Z,79.19
2022-10-25T11:22:07.468Z,78.65
2022-10-25T11:24:45.600Z,78.11
2022-10-25T11:27:22.545Z,78.01
2022-10-25T11:30:04.833Z,78.21
2022-10-25T11:33:13.512Z,78.03
2022-10-25T11:35:53.079Z,77.57
2022-10-25T11:38:32.908Z,76.62
2022-10-25T11:41:13.430Z,76.70
2022-10-25T11:43:59.922Z,76.51
2022-10-25T11:46:36.183Z,76.03
2022-10-25T11:49:23.394Z,75.78
2022-10-25T11:52:10.145Z,75.76
2022-10-25T11:54:46.391Z,75.44
2022-10-25T11:57:26.546Z,75.14
2022-10-25T12:00:06.817Z,74.36
2022-10-25T12:02:58.462Z,74.44
2022-10-25T12:05:34.687Z,74.16
2022-10-25T12:08:18.145Z,73.38
2022-10-25T12:10:52.230Z,73.29
2022-10-25T12:13:27.611Z,71.91
2022-10-25T12:15:58.833Z,72.58
2022-10-25T12:18:34.583Z,71.85
2022-10-25T12:21:03.732Z,71.69
2022-10-25T12:23:39.787Z,71.16
2022-10-25T12:26:18.712Z,71.22
2022-10-25T12:28:50.013Z,71.03
2022-10-25T12:31:21.732Z,70.89
2022-10-25T12:33:55.471Z,71.42
2022-10-25T12:36:32.557Z,72.33
2022-10-25T12:39:04.406Z,72.28
2022-10-25T12:41:38.308Z,72.78
2022-10-25T12:44:30.648Z,72.65
2022-10-25T12:47:21.692Z,72.36
2022-10-25T12:50:09.883Z,72.44
2022-10-25T12:52:41.047Z,72.32
2022-10-25T12:55:37.966Z,71.54
2022-10-25T12:58:35.071Z,70.80
2022-10-25T13:01:27.199Z,70.65
2022-10-25T13:04:33.074Z,70.56
2022-10-25T13:07:04.364Z,69.37
2022-10-25T13:09:35.982Z,68.02
2022-10-25T13:12:07.633Z,67.04
2022-10-25T13:14:40.235Z,66.11
2022-10-25T13:18:00.856Z,67.03
2022-10-25T13:20:53.200Z,67.82
2022-10-25T13:24:02.940Z,68.51
2022-10-25T13:27:24.532Z,68.59
2022-10-25T13:30:27.442Z,68.76
2022-10-25T13:33:33.754Z,68.99
2022-10-25T13:36:06.626Z,68.83
2022-10-25T13:38:39.725Z,69.17
2022-10-25T13:41:15.394Z,69.27
2022-10-25T13:44:02.308Z,69.39
2022-10-25T13:46:38.470Z,69.48
2022-10-25T13:49:38.992Z,69.89
2022-10-25T13:52:24.573Z,70.17
2022-10-25T13:54:56.419Z,70.13
2022-10-25T13:57:54.068Z,70.00
2022-10-25T14:00:37.137Z,69.89
2022-10-25T14:03:35.812Z,69.94
2022-10-25T14:06:13.973Z,70.44
2022-10-25T14:08:54.011Z,70.62
2022-10-25T14:11:28.210Z,70.91
2022-10-25T14:14:01.572Z,70.69
2022-10-25T14:16:33.508Z,70.63
2022-10-25T14:19:15.578Z,71.23
2022-10-25T14:21:47.849Z,71.41
2022-10-25T14:24:17.770Z,71.29
2022-10-25T14:26:55.675Z,71.19
2022-10-25T14:29:26.471Z,71.35
2022-10-25T14:31:55.686Z,71.56
2022-10-25T14:34:28.197Z,71.72
2022-10-25T14:36:58.505Z,72.40
2022-10-25T14:39:28.655Z,72.33
2022-10-25T14:41:59.063Z,72.23
2022-10-25T14:44:30.811Z,72.36
2022-10-25T14:47:01.041Z,72.34
2022-10-25T14:49:30.496Z,72.48
2022-10-25T14:52:01.798Z,72.56
2022-10-25T14:54:33.687Z,72.62
2022-10-25T14:57:04.789Z,72.64
2022-10-25T14:59:42.704Z,72.63
2022-10-25T15:02:19.345Z,72.78
2022-10-25T15:04:51.489Z,72.85
2022-10-25T15:07:24.310Z,72.56
2022-10-25T15:09:56.372Z,72.84
2022-10-25T15:12:26.205Z,72.94
2022-10-25T15:14:55.103Z,73.00
2022-10-25T15:17:30.749Z,73.07
2022-10-25T15:20:07.831Z,73.31
2022-10-25T15:22:46.376Z,73.61
2022-10-25T15:25:28.251Z,73.51
2022-10-25T15:27:56.725Z,73.68
2022-10-25T15:30:36.742Z,74.14
2022-10-25T15:33:09.883Z,74.43
2022-10-25T15:35:48.298Z,74.62
2022-10-25T15:38:17.462Z,74.66
2022-10-25T15:40:46.132Z,74.95
2022-10-25T15:43:14.660Z,74.97
2022-10-25T15:45:43.968Z,75.36
2022-10-25T15:48:16.815Z,75.54
2022-10-25T15:50:50.407Z,75.81
2022-10-25T15:53:18.959Z,75.79
2022-10-25T15:55:47.340Z,76.13
2022-10-25T15:58:15.449Z,76.10
2022-10-25T16:00:44.152Z,76.34
2022-10-25T16:03:19.639Z,76.56
2022-10-25T16:05:50.990Z,76.85
2022-10-25T16:08:19.297Z,77.23
2022-10-25T16:10:47.586Z,77.59
2022-10-25T16:13:22.829Z,77.97
2022-10-25T16:15:50.957Z,78.01
2022-10-25T16:18:19.181Z,78.54
2022-10-25T16:20:48.788Z,78.88
2022-10-25T16:23:18.536Z,78.99
2022-10-25T16:25:46.702Z,79.28
2022-10-25T16:28:15.385Z,79.64
2022-10-25T16:30:45.506Z,79.68
2022-10-25T16:33:13.744Z,79.86
2022-10-25T16:35:42.505Z,79.83
2022-10-25T16:38:11.979Z,80.08
2022-10-25T16:40:40.510Z,80.14
2022-10-25T16:43:12.274Z,80.30
2022-10-25T16:45:40.735Z,80.58
2022-10-25T16:48:08.878Z,80.78
2022-10-25T16:50:37.114Z,81.34
2022-10-25T16:53:09.153Z,81.89
2022-10-25T16:55:38.649Z,81.91
2022-10-25T16:58:06.907Z,82.03
2022-10-25T17:00:36.022Z,82.35
2022-10-25T17:03:06.364Z,82.39
2022-10-25T17:05:34.489Z,82.59
2022-10-25T17:08:02.828Z,83.35
2022-10-25T17:10:31.101Z,82.93
2022-10-25T17:13:03.433Z,83.48
2022-10-25T17:15:33.142Z,83.70
2022-10-25T17:18:01.253Z,83.42
2022-10-25T17:20:29.695Z,83.42
2022-10-25T17:22:57.906Z,83.32
2022-10-25T17:25:25.999Z,83.47
2022-10-25T17:27:55.042Z,82.92
2022-10-25T17:30:24.486Z,83.45
2022-10-25T17:32:53.278Z,83.26
2022-10-25T17:35:28.561Z,83.50
2022-10-25T17:37:58.303Z,83.75
2022-10-25T17:40:26.457Z,83.55
2022-10-25T17:42:55.019Z,83.57
2022-10-25T17:45:24.509Z,84.16
2022-10-25T17:47:52.633Z,84.08
2022-10-25T17:50:22.173Z,83.95
2022-10-25T17:52:51.681Z,84.30
2022-10-25T17:55:20.024Z,83.83
2022-10-25T17:57:48.444Z,84.03
2022-10-25T18:00:17.627Z,84.22
2022-10-25T18:02:50.560Z,83.93
2022-10-25T18:05:20.955Z,84.54
2022-10-25T18:07:50.277Z,84.34
2022-10-25T18:10:18.574Z,84.14
2022-10-25T18:12:47.070Z,84.57
2022-10-25T18:15:15.454Z,84.26
2022-10-25T18:17:46.304Z,84.81
2022-10-25T18:20:17.351Z,84.67
2022-10-25T18:22:45.782Z,84.35
2022-10-25T18:25:14.059Z,85.15
2022-10-25T18:27:42.125Z,85.30
2022-10-25T18:30:12.382Z,84.88
2022-10-25T18:32:40.454Z,84.98
2022-10-25T18:35:09.592Z,85.61
2022-10-25T18:37:39.025Z,85.68
2022-10-25T18:40:10.152Z,85.59
2022-10-25T18:42:38.670Z,85.80
2022-10-25T18:45:08.161Z,85.86
2022-10-25T18:47:36.386Z,85.79
2022-10-25T18:50:05.035Z,86.18
2022-10-25T18:52:34.344Z,85.65
2022-10-25T18:55:03.885Z,86.09
2022-10-25T18:57:32.003Z,86.04
2022-10-25T19:00:00.105Z,86.11
2022-10-25T19:02:28.414Z,86.55
2022-10-25T19:04:56.841Z,86.22
2022-10-25T19:07:25.090Z,86.42
2022-10-25T19:09:53.300Z,86.80
2022-10-25T19:12:22.765Z,86.43
2022-10-25T19:14:50.929Z,87.23
2022-10-25T19:17:19.023Z,87.19
2022-10-25T19:19:47.295Z,86.91
2022-10-25T19:22:15.756Z,87.03
2022-10-25T19:24:43.846Z,87.71
2022-10-25T19:27:11.989Z,87.74
2022-10-25T19:29:41.580Z,87.32
2022-10-25T19:32:09.784Z,87.55
2022-10-25T19:34:37.944Z,87.91
2022-10-25T19:37:07.878Z,88.08
2022-10-25T19:39:37.734Z,88.10
2022-10-25T19:42:06.157Z,88.46
2022-10-25T19:44:36.601Z,88.40
2022-10-25T19:47:06.677Z,87.82
2022-10-25T19:49:34.810Z,88.23
2022-10-25T19:52:03.139Z,88.49
2022-10-25T19:54:31.345Z,88.49
2022-10-25T19:56:59.492Z,88.47
2022-10-25T19:59:27.661Z,88.33
2022-10-25T20:01:55.992Z,88.67
2022-10-25T20:04:26.177Z,88.47
2022-10-25T20:06:54.315Z,88.75
2022-10-25T20:09:22.586Z,89.62
2022-10-25T20:11:50.718Z,89.37
2022-10-25T20:14:18.825Z,88.82
2022-10-25T20:16:46.901Z,89.48
2022-10-25T20:19:15.667Z,89.67
2022-10-25T20:21:45.271Z,89.64
2022-10-25T20:24:13.379Z,89.51
2022-10-25T20:26:44.575Z,89.54
2022-10-25T20:29:20.307Z,89.57
2022-10-25T20:31:50.406Z,89.76
2022-10-25T20:34:19.168Z,90.08
2022-10-25T20:36:51.441Z,90.23
2022-10-25T20:39:19.624Z,90.41
2022-10-25T20:41:47.751Z,90.36
2022-10-25T20:44:16.048Z,90.25
2022-10-25T20:46:44.236Z,90.33
2022-10-25T20:49:12.504Z,90.56
2022-10-25T20:51:40.869Z,90.69
2022-10-25T20:54:10.396Z,90.31
2022-10-25T20:56:39.660Z,90.81
2022-10-25T20:59:08.885Z,90.46
2022-10-25T21:01:37.482Z,91.08
2022-10-25T21:04:06.623Z,91.02
2022-10-25T21:06:34.786Z,91.38
2022-10-25T21:09:03.163Z,91.42
2022-10-25T21:11:32.768Z,91.51
2022-10-25T21:14:00.909Z,91.18
2022-10-25T21:16:29.308Z,91.24
2022-10-25T21:18:57.439Z,91.58
2022-10-25T21:21:25.592Z,91.35
2022-10-25T21:23:56.661Z,91.43
2022-10-25T21:26:25.097Z,91.56
2022-10-25T21:28:54.680Z,92.06
2022-10-25T21:31:22.849Z,91.59
2022-10-25T21:33:52.520Z,91.81
2022-10-25T21:36:22.604Z,92.13
2022-10-25T21:38:50.986Z,92.10
2022-10-25T21:41:26.537Z,91.78
2022-10-25T21:43:57.848Z,92.42
2022-10-25T21:46:28.224Z,92.25
2022-10-25T21:48:56.368Z,92.14
2022-10-25T21:51:25.581Z,92.06
2022-10-25T21:53:54.485Z,92.10
2022-10-25T21:56:30.561Z,92.53
2022-10-25T21:59:01.606Z,92.35
2022-10-25T22:01:31.638Z,92.15
2022-10-25T22:03:59.869Z,92.77
2022-10-25T22:06:28.916Z,92.89
2022-10-25T22:08:57.939Z,92.84
2022-10-25T22:11:28.141Z,92.47
2022-10-25T22:13:57.991Z,92.53
2022-10-25T22:16:28.666Z,92.71
2022-10-25T22:18:58.825Z,92.59
2022-10-25T22:21:29.391Z,92.53
2022-10-25T22:23:57.488Z,93.00
2022-10-25T22:26:25.993Z,92.85
2022-10-25T22:28:55.835Z,92.72
2022-10-25T22:31:24.673Z,92.90
2022-10-25T22:33:57.058Z,92.66
2022-10-25T22:36:27.159Z,92.50
2022-10-25T22:38:56.646Z,92.78
2022-10-25T22:41:27.566Z,92.70
2022-10-25T22:43:56.316Z,93.22
2022-10-25T22:46:26.688Z,92.78
2022-10-25T22:48:57.989Z,92.62
2022-10-25T22:51:28.743Z,92.82
2022-10-25T22:53:57.273Z,92.93
2022-10-25T22:56:30.735Z,92.64
2022-10-25T22:59:01.135Z,92.75
2022-10-25T23:01:31.827Z,92.51
2022-10-25T23:04:03.964Z,92.71
2022-10-25T23:06:34.146Z,92.91
2022-10-25T23:09:05.275Z,92.88
2022-10-25T23:11:36.136Z,92.75
2022-10-25T23:14:05.219Z,92.81
2022-10-25T23:16:33.470Z,92.87
2022-10-25T23:19:03.209Z,93.00
2022-10-25T23:21:31.600Z,92.93
2022-10-25T23:24:01.534Z,92.66
2022-10-25T23:26:32.530Z,93.20
2022-10-25T23:29:01.668Z,93.04
2022-10-25T23:31:31.052Z,93.16
2022-10-25T23:34:02.329Z,93.15
2022-10-25T23:36:37.203Z,93.17
2022-10-25T23:39:07.309Z,93.09
2022-10-25T23:41:35.366Z,93.26
2022-10-25T23:44:03.673Z,93.36
2022-10-25T23:46:31.773Z,93.51
2022-10-25T23:49:00.073Z,93.64
2022-10-25T23:51:29.557Z,93.81
2022-10-25T23:53:57.651Z,93.68
2022-10-25T23:56:25.950Z,93.74
2022-10-25T23:58:54.251Z,93.65
